• Join FlightAware (Why Join?)
  • Login
  • US Flag 
02:51PM EDT


 

Airport Tracker/Info


-or-


 

Live Flight TrackerFlight Track Log ✈ SWA286 ✈ 12-Apr-2013 ✈ KISP - KBWI

Flight Track Log - Related Links

Times and Time Zones

All times are in EDT time to prevent confusion due to time zone crossing. See the SWA286 flight status page for this flight to view local times or setup timezone preferences in your user account.

Time Position Orientation Groundspeed Altitude Reporting Facility
EDT Latitude Longitude Course Direction KTS MPH feet Rate Location/Type
03:40PM 40.8231 -73.0708 241° Southwest 173 199 2,000  Level Boston Center
03:41PM 40.8528 -73.0000 61° Northeast 207 238 4,400 2,820 Climbing Boston Center
03:42PM 40.8553 -72.9039 88° East 233 268 7,800 1,800 Climbing Boston Center
03:43PM 40.8536 -72.7886 91° East 265 305 8,100 840 Climbing Boston Center
03:45PM 40.8225 -72.6869 112° Southeast 294 338 9,500 1,380 Climbing Boston Center
03:45PM 40.7644 -72.6044 133° Southeast 303 349 10,900 2,160 Climbing Boston Center
03:46PM 40.4955 -73.7923 241° Southwest  Level Estimated
03:46PM 40.6769 -72.6125 184° South 273 314 13,900  Level Boston Center
03:48PM 40.6036 -72.6944 220° Southwest 274 315 17,000 2,520 Climbing Boston Center
03:48PM 40.5472 -72.8114 238° Southwest 310 357 19,000 1,740 Climbing Boston Center
03:49PM 40.4989 -72.9178 239° Southwest 343 395 20,500 1,800 Climbing Boston Center
03:50PM 40.4067 -73.0014 215° Southwest 372 428 22,700 2,160 Climbing Boston Center
03:52PM 40.3167 -73.0961 219° Southwest 404 465 25,000 1,980 Climbing Boston Center
03:53PM 40.1781 -73.2511 221° Southwest 399 459 28,000 1,140 Climbing Washington Center
03:54PM 40.0944 -73.3406 219° Southwest 399 459 28,000  Level Washington Center
03:55PM 40.0025 -73.4356 218° Southwest 412 474 28,000  Level Washington Center
03:56PM 39.9164 -73.5275 219° Southwest 419 482 28,000  Level Washington Center
03:57PM 39.8244 -73.6219 218° Southwest 419 482 28,000  Level Washington Center
03:58PM 39.7364 -73.7161 219° Southwest 414 476 28,000 -600 Level Washington Center
03:59PM 39.6461 -73.8075 218° Southwest 414 476 26,900 -1,320 Descending Washington Center
04:00PM 39.5578 -73.8986 219° Southwest 414 476 25,400 -1,440 Descending Washington Center
04:01PM 39.4714 -73.9892 219° Southwest 414 476 24,100 -720 Descending Washington Center
04:02PM 39.3831 -74.0825 219° Southwest 414 476 24,000 -60 Descending Washington Center
04:03PM 39.2925 -74.1731 218° Southwest 414 476 24,000 -300 Level Washington Center
04:04PM 39.2058 -74.2603 218° Southwest 414 476 23,400 -1,020 Descending Washington Center
04:05PM 39.1233 -74.3447 218° Southwest 409 471 22,000 -1,440 Descending Washington Center
04:06PM 39.0408 -74.4317 219° Southwest 398 458 20,600 -1,440 Descending Washington Center
04:07PM 38.9583 -74.5186 219° Southwest 393 452 19,200 -1,500 Descending Washington Center
04:08PM 38.9219 -74.6392 249° West 370 426 17,600 -1,800 Descending Washington Center
04:09PM 38.8958 -74.7675 255° West 363 418 15,600 -1,860 Descending Washington Center
04:10PM 38.8842 -74.9064 264° West 363 418 13,900 -1,200 Descending Washington Center
04:11PM 38.8953 -75.0261 277° West 354 407 13,300 -1,020 Descending Washington Center
04:12PM 38.9000 -75.1408 273° West 336 387 11,900 -960 Descending Washington Center
04:13PM 38.9086 -75.2583 275° West 331 381 11,400 -540 Descending Washington Center
04:14PM 38.9131 -75.3622 273° West 319 367 10,900 -240 Descending Washington Center
04:15PM 38.9092 -75.4636 267° West 306 352 11,000  Climbing Washington Center
04:16PM 38.8861 -75.5622 253° West 296 341 11,000  Level Washington Center
04:17PM 38.8592 -75.6636 251° West 296 341 11,000  Level Washington Center
04:18PM 38.8319 -75.7756 253° West 315 362 11,000  Level Washington Center
04:19PM 38.8003 -75.8900 250° West 332 382 11,000  Level Washington Center
04:20PM 38.7708 -76.0044 252° West 337 388 11,000 -60 Level Washington Center
04:21PM 38.7475 -76.1294 257° West 349 402 10,900 -120 Descending Washington Center
04:22PM 38.7803 -76.2281 293° West 342 394 10,800 -600 Descending Washington Center
04:23PM 38.8442 -76.3486 304° West 341 392 9,800 -660 Descending Washington Center
04:24PM 38.8894 -76.4369 303° West 333 383 9,500 -960 Descending Washington Center
04:25PM 38.9167 -76.5000 299° West 268 308 8,100 -1,680 Descending Potomac TRACON
04:26PM 38.9667 -76.5833 308° West 273 314 6,400 -1,560 Descending Potomac TRACON
04:27PM 39.0000 -76.6667 297° West 277 319 5,000 -720 Descending Potomac TRACON
04:28PM 39.0333 -76.7500 297° West 229 264 5,000 -360 Level Potomac TRACON
04:29PM 39.0667 -76.8167 303° West 222 255 4,300 -540 Descending Potomac TRACON
04:30PM 39.0833 -76.8833 288° West 184 212 4,000 -180 Descending Potomac TRACON
04:31PM 39.1000 -76.9333 293° West 176 203 4,000 -480 Level Potomac TRACON
04:32PM 39.1500 -76.9667 333° Northwest 193 222 3,100 -600 Descending Potomac TRACON
04:33PM 39.1833 -76.9500 21° North 191 220 2,900 -540 Descending Potomac TRACON
04:34PM 39.1833 -76.9000 90° East 173 199 2,100 -480 Descending Potomac TRACON
04:35PM 39.1833 -76.8333 90° East 158 182 2,000 -300 Descending Potomac TRACON
04:36PM 39.1833 -76.7833 90° East 163 188 1,500 -600 Descending Potomac TRACON
04:37PM 39.1833 -76.7333 90° East 133 153 800 -720 Descending Potomac TRACON